地図

経路データ

SID SEASON NUMBER BASIN SUBBASIN NAME ISO_TIME NATURE LAT LON WMO_WIND WMO_PRES WMO_AGENCY TRACK_TYPE DIST2LAND LANDFALL IFLAG USA_AGENCY USA_ATCF_ID USA_LAT USA_LON USA_RECORD USA_STATUS USA_WIND USA_PRES USA_SSHS USA_R34_NE USA_R34_SE USA_R34_SW USA_R34_NW USA_R50_NE USA_R50_SE USA_R50_SW USA_R50_NW USA_R64_NE USA_R64_SE USA_R64_SW USA_R64_NW USA_POCI USA_ROCI USA_RMW USA_EYE TOKYO_LAT TOKYO_LON TOKYO_GRADE TOKYO_WIND TOKYO_PRES TOKYO_R50_DIR TOKYO_R50_LONG TOKYO_R50_SHORT TOKYO_R30_DIR TOKYO_R30_LONG TOKYO_R30_SHORT TOKYO_LAND CMA_LAT CMA_LON CMA_CAT CMA_WIND CMA_PRES HKO_LAT HKO_LON HKO_CAT HKO_WIND HKO_PRES NEWDELHI_LAT NEWDELHI_LON NEWDELHI_GRADE NEWDELHI_WIND NEWDELHI_PRES NEWDELHI_CI NEWDELHI_DP NEWDELHI_POCI REUNION_LAT REUNION_LON REUNION_TYPE REUNION_WIND REUNION_PRES REUNION_TNUM REUNION_CI REUNION_RMW REUNION_R34_NE REUNION_R34_SE REUNION_R34_SW REUNION_R34_NW REUNION_R50_NE REUNION_R50_SE REUNION_R50_SW REUNION_R50_NW REUNION_R64_NE REUNION_R64_SE REUNION_R64_SW REUNION_R64_NW BOM_LAT BOM_LON BOM_TYPE BOM_WIND BOM_PRES BOM_TNUM BOM_CI BOM_RMW BOM_R34_NE BOM_R34_SE BOM_R34_SW BOM_R34_NW BOM_R50_NE BOM_R50_SE BOM_R50_SW BOM_R50_NW BOM_R64_NE BOM_R64_SE BOM_R64_SW BOM_R64_NW BOM_ROCI BOM_POCI BOM_EYE BOM_POS_METHOD BOM_PRES_METHOD NADI_LAT NADI_LON NADI_CAT NADI_WIND NADI_PRES WELLINGTON_LAT WELLINGTON_LON WELLINGTON_WIND WELLINGTON_PRES DS824_LAT DS824_LON DS824_STAGE DS824_WIND DS824_PRES TD9636_LAT TD9636_LON TD9636_STAGE TD9636_WIND TD9636_PRES TD9635_LAT TD9635_LON TD9635_WIND TD9635_PRES TD9635_ROCI NEUMANN_LAT NEUMANN_LON NEUMANN_CLASS NEUMANN_WIND NEUMANN_PRES MLC_LAT MLC_LON MLC_CLASS MLC_WIND MLC_PRES USA_GUST BOM_GUST BOM_GUST_PER REUNION_GUST REUNION_GUST_PER USA_SEAHGT USA_SEARAD_NE USA_SEARAD_SE USA_SEARAD_SW USA_SEARAD_NW STORM_SPEED STORM_DIR
1946319N09086 1946 69 NI BB NOT_NAMED 1946-11-14 18:00:00 TS 9.20000 85.7000 main 465 409 O________O____ jtwc_io IO151946 9.20000 85.7000 -1 9.20000 85.7000 TC 15 294
1946319N09086 1946 69 NI BB NOT_NAMED 1946-11-14 21:00:00 TS 9.51028 85.0003 main 409 355 P________P____ IO151946 9.51028 85.0003 -1 9.51028 85.0003 TC 15 293
1946319N09086 1946 69 NI BB NOT_NAMED 1946-11-15 00:00:00 TS 9.80000 84.3000 main 355 300 O________O____ jtwc_io IO151946 9.80000 84.3000 -1 9.80000 84.3000 TC 25 15 292
1946319N09086 1946 69 NI BB NOT_NAMED 1946-11-15 03:00:00 TS 10.0621 83.5999 main 306 265 P________PO___ IO151946 10.0574 83.5999 -1 10.0574 83.5999 TC 25 10.1000 83.6000 1 15 290
1946319N09086 1946 69 NI BB NOT_NAMED 1946-11-15 06:00:00 TS 10.3056 82.9131 main 256 212 O________OP___ jtwc_io IO151946 10.3000 82.9000 -1 10.3000 82.9000 TC 25 10.3282 82.9657 1 14 290
1946319N09086 1946 69 NI BB NOT_NAMED 1946-11-15 09:00:00 TS 10.5566 82.2340 main 211 185 P________PP___ IO151946 10.5573 82.2074 -1 10.5573 82.2074 TC 30 10.5547 82.3049 1 14 290
1946319N09086 1946 69 NI BB NOT_NAMED 1946-11-15 12:00:00 TS 10.7930 81.5306 main 174 98 O________OP___ jtwc_io IO151946 10.8000 81.5000 -1 10.8000 81.5000 TC 35 10.7789 81.5917 1 15 288
1946319N09086 1946 69 NI BB NOT_NAMED 1946-11-15 15:00:00 TS 11.0047 80.7965 main 98 10 P________PO___ IO151946 11.0071 80.7947 -1 11.0071 80.7947 TC 30 11.0000 80.8000 2 16 285
1946319N09086 1946 69 NI BB NOT_NAMED 1946-11-15 18:00:00 TS 11.2054 79.9729 main 10 0 O________OP___ jtwc_io IO151946 11.2000 80.0000 -1 11.2000 80.0000 TC 25 11.2162 79.9188 2 18 283
1946319N09086 1946 69 NI BB NOT_NAMED 1946-11-15 21:00:00 TS 11.4083 78.9894 main 0 0 P________PP___ IO151946 11.4005 78.9851 -1 11.4005 78.9851 TC 25 11.4239 78.9979 2 19 282
1946319N09086 1946 69 NI BB NOT_NAMED 1946-11-16 00:00:00 TS 11.6065 78.0344 main 0 0 O________OP___ jtwc_io IO151946 11.6000 78.0000 -1 11.6000 78.0000 TC 25 11.6195 78.1031 2 17 284
1946319N09086 1946 69 NI AS NOT_NAMED 1946-11-16 03:00:00 TS 11.8097 77.2833 main 0 0 P________PO___ IO151946 11.8146 77.2750 -1 11.8146 77.2750 TC 25 11.8000 77.3000 1 14 286
1946319N09086 1946 69 NI AS NOT_NAMED 1946-11-16 06:00:00 TS 11.9836 76.6899 main 0 0 O________OP___ jtwc_io IO151946 12.0000 76.7000 -1 12.0000 76.7000 TC 25 11.9507 76.6697 1 11 285
1946319N09086 1946 69 NI AS NOT_NAMED 1946-11-16 09:00:00 TS 12.0968 76.1637 main 0 0 P________PP___ IO151946 12.0998 76.1773 -1 12.0998 76.1773 TC 25 12.0907 76.1367 1 10 283
1946319N09086 1946 69 NI AS NOT_NAMED 1946-11-16 12:00:00 TS 12.2118 75.6868 main 0 0 O________OP___ jtwc_io IO151946 12.2000 75.7000 -1 12.2000 75.7000 TC 25 12.2354 75.6604 1 10 287
1946319N09086 1946 69 NI AS NOT_NAMED 1946-11-16 15:00:00 TS 12.3899 75.2000 main 0 0 P________PO___ IO151946 12.3849 75.2000 -1 12.3849 75.2000 TC 25 12.4000 75.2000 1 11 291
1946319N09086 1946 69 NI AS NOT_NAMED 1946-11-16 18:00:00 TS 12.5877 74.6827 main 21 21 O________OP___ jtwc_io IO151946 12.6000 74.7000 -1 12.6000 74.7000 TC 25 12.5630 74.6480 1 11 291
1946319N09086 1946 69 NI AS NOT_NAMED 1946-11-16 21:00:00 TS 12.7692 74.1648 main 65 65 P________PP___ IO151946 12.7774 74.1923 -1 12.7774 74.1923 TC 30 12.7528 74.1098 1 11 293
1946319N09086 1946 69 NI AS NOT_NAMED 1946-11-17 00:00:00 TS 12.9971 73.6722 main 113 113 O________OP___ jtwc_io IO151946 13.0000 73.7000 -1 13.0000 73.7000 TC 35 12.9912 73.6167 1 11 300
1946319N09086 1946 69 NI AS NOT_NAMED 1946-11-17 03:00:00 TS 13.3034 73.2034 main 162 162 P________PO___ IO151946 13.3050 73.2051 -1 13.3050 73.2051 TC 35 13.3000 73.2000 2 11 310
1946319N09086 1946 69 NI AS NOT_NAMED 1946-11-17 06:00:00 TS 13.6996 72.8185 main 185 175 O________OP___ jtwc_io IO151946 13.7000 72.8000 -1 13.7000 72.8000 TC 35 13.6987 72.8556 2 11 324
1946319N09086 1946 69 NI AS NOT_NAMED 1946-11-17 09:00:00 TS 14.1739 72.5626 main 172 164 P________PP___ IO151946 14.1774 72.5474 -1 14.1774 72.5474 TC 35 14.1670 72.5930 2 11 338
1946319N09086 1946 69 NI AS NOT_NAMED 1946-11-17 12:00:00 TS 14.6923 72.4029 main 167 156 O________OP___ jtwc_io IO151946 14.7000 72.4000 -1 14.7000 72.4000 TC 35 14.6769 72.4088 2 11 345
1946319N09086 1946 69 NI AS NOT_NAMED 1946-11-17 15:00:00 TS 15.2000 72.2750 main 156 146 P________PO___ IO151946 15.2000 72.2625 -1 15.2000 72.2625 TC 35 15.2000 72.3000 3 10 349
1946319N09086 1946 69 NI AS NOT_NAMED 1946-11-17 18:00:00 TS 15.7056 72.2068 main 146 122 O________OP___ jtwc_io IO151946 15.7000 72.2000 -1 15.7000 72.2000 TC 35 15.7169 72.2204 3 10 357
1946319N09086 1946 69 NI AS NOT_NAMED 1946-11-17 21:00:00 TS 16.2174 72.2132 main 122 106 P________PP___ IO151946 16.2075 72.2125 -1 16.2075 72.2125 TC 35 16.2371 72.2148 3 10 4
1946319N09086 1946 69 NI AS NOT_NAMED 1946-11-18 00:00:00 TS 16.7129 72.2923 main 106 86 O________OP___ jtwc_io IO151946 16.7000 72.3000 -1 16.7000 72.3000 TC 35 16.7388 72.2768 3 10 11
1946319N09086 1946 69 NI AS NOT_NAMED 1946-11-18 03:00:00 TS 17.1816 72.4134 main 86 53 P________PO___ IO151946 17.1725 72.4200 -1 17.1725 72.4200 TC 35 17.2000 72.4000 3 9 17
1946319N09086 1946 69 NI AS NOT_NAMED 1946-11-18 06:00:00 TS 17.6031 72.5837 main 53 21 O________OP___ jtwc_io IO151946 17.6000 72.6000 -1 17.6000 72.6000 TC 35 17.6093 72.5511 3 9 26
1946319N09086 1946 69 NI AS NOT_NAMED 1946-11-18 09:00:00 TS 17.9733 72.8149 main 21 0 P________PP___ IO151946 17.9725 72.8425 -1 17.9725 72.8425 TC 30 17.9749 72.7598 3 8 34
1946319N09086 1946 69 NI AS NOT_NAMED 1946-11-18 12:00:00 TS 18.3010 73.0712 main 0 0 O________OP___ jtwc_io IO151946 18.3000 73.1000 -1 18.3000 73.1000 TC 25 18.3030 73.0137 3 8 35
1946319N09086 1946 69 NI AS NOT_NAMED 1946-11-18 15:00:00 TS 18.6149 73.2951 main 0 0 P________PO___ IO151946 18.6224 73.2926 -1 18.6224 73.2926 TC 25 18.6000 73.3000 1 7 34
1946319N09086 1946 69 NI AS NOT_NAMED 1946-11-18 18:00:00 TS 18.8867 73.4923 main 0 0 O________OP___ jtwc_io IO151946 18.9000 73.5000 -1 18.9000 73.5000 TC 25 18.8601 73.4768 1 6 40
1946319N09086 1946 69 NI AS NOT_NAMED 1946-11-18 21:00:00 TS 19.0983 73.7166 main 0 0 P________PP___ IO151946 19.0996 73.7255 -1 19.0996 73.7255 TC 25 19.0957 73.6990 1 7 53
1946319N09086 1946 69 NI AS NOT_NAMED 1946-11-19 00:00:00 TS 19.3112 74.0821 main 0 0 O________OP___ jtwc_io IO151946 19.3000 74.1000 -1 19.3000 74.1000 TC 25 19.3337 74.0464 1 10 61
1946319N09086 1946 69 NI AS NOT_NAMED 1946-11-19 03:00:00 TS 19.5795 74.6487 main 0 0 P________PO___ IO151946 19.5693 74.6731 -1 19.5693 74.6731 TC 25 19.6000 74.6000 1 15 65
1946319N09086 1946 69 NI AS NOT_NAMED 1946-11-19 06:00:00 TS 19.9204 75.4922 main 0 0 O________OP___ jtwc_io IO151946 19.9000 75.5000 -1 19.9000 75.5000 TC 25 19.9613 75.4765 1 20 68
1946319N09086 1946 69 NI AS NOT_NAMED 1946-11-19 09:00:00 TS 20.3196 76.5839 main 0 0 P________PP___ IO151946 20.3082 76.5968 -1 20.3082 76.5968 TC 25 20.3425 76.5582 1 23 70
1946319N09086 1946 69 NI AS NOT_NAMED 1946-11-19 12:00:00 TS 20.7006 77.7788 main 0 0 O________OP___ jtwc_io IO151946 20.7000 77.8000 -1 20.7000 77.8000 TC 25 20.7018 77.7363 1 23 73
1946319N09086 1946 69 NI BB NOT_NAMED 1946-11-19 15:00:00 TS 20.9961 78.8819 main 0 0 P________PO___ IO151946 20.9942 78.8729 -1 20.9942 78.8729 TC 25 21.0000 78.9000 1 21 76
1946319N09086 1946 69 NI BB NOT_NAMED 1946-11-19 18:00:00 TS 21.2017 79.9134 main 0 0 O________OP___ jtwc_io IO151946 21.2000 79.9000 -1 21.2000 79.9000 TC 25 21.2051 79.9402 1 20 80
1946319N09086 1946 69 NI BB NOT_NAMED 1946-11-19 21:00:00 TS 21.3355 80.9424 main 0 0 P________PP___ IO151946 21.3299 80.9454 -1 21.3299 80.9454 TC 25 21.3468 80.9366 1 19 83
1946319N09086 1946 69 NI BB NOT_NAMED 1946-11-20 00:00:00 TS 21.4133 81.8882 main 0 0 O________OP___ jtwc_io IO151946 21.4000 81.9000 -1 21.4000 81.9000 TC 25 21.4400 81.8646 1 16 85
1946319N09086 1946 69 NI BB NOT_NAMED 1946-11-20 03:00:00 TS 21.4713 82.7068 main 0 0 P________PO___ IO151946 21.4569 82.7102 -1 21.4569 82.7102 TC 25 21.5000 82.7000 1 14 86
1946319N09086 1946 69 NI BB NOT_NAMED 1946-11-20 06:00:00 TS 21.5210 83.4049 main 0 0 O________OP___ jtwc_io IO151946 21.5000 83.4000 -1 21.5000 83.4000 TC 25 21.5630 83.4148 1 12 85
1946319N09086 1946 69 NI BB NOT_NAMED 1946-11-20 09:00:00 TS 21.5709 84.0284 main 0 0 P________PP___ IO151946 21.5570 84.0225 -1 21.5570 84.0225 TC 25 21.5988 84.0404 1 11 86
1946319N09086 1946 69 NI BB NOT_NAMED 1946-11-20 12:00:00 TS 21.6035 84.6069 main 0 0 O________OP___ jtwc_io IO151946 21.6000 84.6000 -1 21.6000 84.6000 TC 25 21.6104 84.6207 1 11 88
1946319N09086 1946 69 NI BB NOT_NAMED 1946-11-20 15:00:00 TS 21.6098 85.1950 main 0 0 P________PO___ IO151946 21.6147 85.1925 -1 21.6147 85.1925 TC 25 21.6000 85.2000 1 11 91
1946319N09086 1946 69 NI BB NOT_NAMED 1946-11-20 18:00:00 TS 21.5879 85.8052 main 0 0 O________OP___ jtwc_io IO151946 21.6000 85.8000 -1 21.6000 85.8000 TC 25 21.5698 85.8130 1 12 93
1946319N09086 1946 69 NI BB NOT_NAMED 1946-11-20 21:00:00 TS 21.5433 86.4478 main 0 0 P________PP___ IO151946 21.5581 86.4401 -1 21.5581 86.4401 TC 25 21.5235 86.4580 1 12 95
1946319N09086 1946 69 NI BB NOT_NAMED 1946-11-21 00:00:00 TS 21.4827 87.1120 main 0 0 O________OP___ jtwc_io IO151946 21.5000 87.1000 -1 21.5000 87.1000 TC 25 21.4654 87.1240 1 13 96
1946319N09086 1946 69 NI BB NOT_NAMED 1946-11-21 03:00:00 NR 21.4000 87.8000 main 33 __________O___ IO151946 -1 TC 21.4000 87.8000 1 13 97

IBTrACS Databaseについて

本データベースは、米国NOAAが公開する1842年以降の世界の熱帯低気圧のベストトラックデータアーカイブInternational Best Track Archive for Climate Stewardship (IBTrACS)を、ウェブで閲覧しやすい形式に変換したものです。

最終更新日:2021-10-27